sensor_id;sensor_type;location;lat;lon;timestamp;pressure;altitude;pressure_sealevel;temperature;humidity
30708;BME280;17458;48.958;8.284;2023-11-19T00:01:32;100327.13;;;12.47;83.80
30708;BME280;17458;48.958;8.284;2023-11-19T00:04:16;100299.59;;;12.25;84.82
30708;BME280;17458;48.958;8.284;2023-11-19T00:07:01;100306.69;;;12.46;84.96
30708;BME280;17458;48.958;8.284;2023-11-19T00:09:47;100319.72;;;12.39;85.40
30708;BME280;17458;48.958;8.284;2023-11-19T00:12:31;100323.03;;;12.55;84.86
30708;BME280;17458;48.958;8.284;2023-11-19T00:15:16;100310.41;;;12.71;84.27
30708;BME280;17458;48.958;8.284;2023-11-19T00:18:01;100306.09;;;12.97;83.06
30708;BME280;17458;48.958;8.284;2023-11-19T00:20:48;100302.69;;;12.79;83.92
30708;BME280;17458;48.958;8.284;2023-11-19T00:23:32;100297.06;;;12.94;83.20
30708;BME280;17458;48.958;8.284;2023-11-19T00:26:16;100282.00;;;12.72;85.46
30708;BME280;17458;48.958;8.284;2023-11-19T00:29:05;100281.22;;;12.74;84.85
30708;BME280;17458;48.958;8.284;2023-11-19T00:31:53;100280.91;;;12.89;84.63
30708;BME280;17458;48.958;8.284;2023-11-19T00:34:37;100276.88;;;12.76;85.19
30708;BME280;17458;48.958;8.284;2023-11-19T00:37:20;100283.25;;;12.82;85.64
30708;BME280;17458;48.958;8.284;2023-11-19T00:40:05;100280.34;;;12.98;84.40
30708;BME280;17458;48.958;8.284;2023-11-19T00:42:49;100271.13;;;13.12;83.48
30708;BME280;17458;48.958;8.284;2023-11-19T00:45:33;100269.63;;;12.96;84.63
30708;BME280;17458;48.958;8.284;2023-11-19T00:48:17;100265.63;;;13.07;84.27
30708;BME280;17458;48.958;8.284;2023-11-19T00:51:01;100259.59;;;12.89;85.43
30708;BME280;17458;48.958;8.284;2023-11-19T00:53:45;100274.75;;;12.90;84.91
30708;BME280;17458;48.958;8.284;2023-11-19T00:56:29;100266.25;;;13.00;85.23
30708;BME280;17458;48.958;8.284;2023-11-19T00:59:13;100264.84;;;13.10;84.31
30708;BME280;17458;48.958;8.284;2023-11-19T01:02:01;100261.03;;;13.03;85.09
30708;BME280;17458;48.958;8.284;2023-11-19T01:04:50;100248.78;;;13.08;85.07
30708;BME280;17458;48.958;8.284;2023-11-19T01:07:34;100248.09;;;12.90;85.95
30708;BME280;17458;48.958;8.284;2023-11-19T01:10:18;100255.66;;;13.02;85.58
30708;BME280;17458;48.958;8.284;2023-11-19T01:13:03;100261.81;;;13.23;84.77
30708;BME280;17458;48.958;8.284;2023-11-19T01:15:49;100252.38;;;13.31;84.46
30708;BME280;17458;48.958;8.284;2023-11-19T01:18:33;100255.00;;;13.09;84.86
30708;BME280;17458;48.958;8.284;2023-11-19T01:21:17;100266.81;;;13.38;84.40
30708;BME280;17458;48.958;8.284;2023-11-19T01:24:04;100266.16;;;13.43;84.92
30708;BME280;17458;48.958;8.284;2023-11-19T01:26:53;100255.63;;;13.48;83.35
30708;BME280;17458;48.958;8.284;2023-11-19T01:29:38;100266.13;;;13.20;85.48
30708;BME280;17458;48.958;8.284;2023-11-19T01:32:24;100259.91;;;13.19;84.81
30708;BME280;17458;48.958;8.284;2023-11-19T01:35:11;100262.25;;;13.35;84.97
30708;BME280;17458;48.958;8.284;2023-11-19T01:37:55;100250.28;;;13.24;84.19
30708;BME280;17458;48.958;8.284;2023-11-19T01:40:40;100267.97;;;13.44;84.56
30708;BME280;17458;48.958;8.284;2023-11-19T01:43:39;100267.72;;;13.62;84.48
30708;BME280;17458;48.958;8.284;2023-11-19T01:46:26;100270.44;;;13.88;82.18
30708;BME280;17458;48.958;8.284;2023-11-19T01:49:11;100268.13;;;13.73;83.08
30708;BME280;17458;48.958;8.284;2023-11-19T01:51:57;100261.53;;;13.63;83.30
30708;BME280;17458;48.958;8.284;2023-11-19T01:54:42;100262.78;;;13.49;83.55
30708;BME280;17458;48.958;8.284;2023-11-19T01:57:26;100252.94;;;13.48;84.47
30708;BME280;17458;48.958;8.284;2023-11-19T02:00:10;100256.13;;;13.14;85.94
30708;BME280;17458;48.958;8.284;2023-11-19T02:02:57;100258.69;;;13.35;85.80
30708;BME280;17458;48.958;8.284;2023-11-19T02:05:42;100242.59;;;13.56;83.89
30708;BME280;17458;48.958;8.284;2023-11-19T02:08:26;100248.94;;;13.59;83.76
30708;BME280;17458;48.958;8.284;2023-11-19T02:11:11;100243.59;;;13.59;84.17
30708;BME280;17458;48.958;8.284;2023-11-19T02:13:56;100242.41;;;13.51;84.80
30708;BME280;17458;48.958;8.284;2023-11-19T02:16:41;100248.72;;;13.29;85.10
30708;BME280;17458;48.958;8.284;2023-11-19T02:19:25;100246.72;;;13.47;84.87
30708;BME280;17458;48.958;8.284;2023-11-19T02:22:10;100254.06;;;13.78;83.37
30708;BME280;17458;48.958;8.284;2023-11-19T02:24:58;100261.69;;;13.68;84.71
30708;BME280;17458;48.958;8.284;2023-11-19T02:27:59;100248.63;;;14.01;83.00
30708;BME280;17458;48.958;8.284;2023-11-19T02:30:44;100240.16;;;13.63;83.92
30708;BME280;17458;48.958;8.284;2023-11-19T02:33:28;100239.56;;;13.23;86.33
30708;BME280;17458;48.958;8.284;2023-11-19T02:36:13;100237.00;;;13.73;85.10
30708;BME280;17458;48.958;8.284;2023-11-19T02:38:57;100248.19;;;13.63;84.83
30708;BME280;17458;48.958;8.284;2023-11-19T02:41:41;100234.56;;;13.56;85.03
30708;BME280;17458;48.958;8.284;2023-11-19T02:44:25;100249.44;;;13.49;84.95
30708;BME280;17458;48.958;8.284;2023-11-19T02:47:12;100242.91;;;13.65;85.88
30708;BME280;17458;48.958;8.284;2023-11-19T02:49:56;100248.59;;;13.50;86.31
30708;BME280;17458;48.958;8.284;2023-11-19T02:52:41;100240.63;;;13.75;85.01
30708;BME280;17458;48.958;8.284;2023-11-19T02:55:25;100229.78;;;13.45;85.62
30708;BME280;17458;48.958;8.284;2023-11-19T02:58:11;100229.25;;;13.56;85.98
30708;BME280;17458;48.958;8.284;2023-11-19T03:01:04;100199.47;;;13.69;85.68
30708;BME280;17458;48.958;8.284;2023-11-19T03:03:57;100188.41;;;13.33;87.63
30708;BME280;17458;48.958;8.284;2023-11-19T03:06:42;100210.00;;;13.40;87.03
30708;BME280;17458;48.958;8.284;2023-11-19T03:09:26;100214.69;;;13.71;85.79
30708;BME280;17458;48.958;8.284;2023-11-19T03:12:10;100215.75;;;13.27;87.59
30708;BME280;17458;48.958;8.284;2023-11-19T03:14:54;100221.84;;;13.48;85.98
30708;BME280;17458;48.958;8.284;2023-11-19T03:17:39;100221.03;;;14.00;83.74
30708;BME280;17458;48.958;8.284;2023-11-19T03:20:23;100215.31;;;13.64;85.44
30708;BME280;17458;48.958;8.284;2023-11-19T03:23:11;100197.41;;;14.12;83.19
30708;BME280;17458;48.958;8.284;2023-11-19T03:25:56;100206.56;;;14.20;82.42
30708;BME280;17458;48.958;8.284;2023-11-19T03:28:40;100195.63;;;14.13;82.43
30708;BME280;17458;48.958;8.284;2023-11-19T03:31:24;100194.50;;;13.79;85.33
30708;BME280;17458;48.958;8.284;2023-11-19T03:34:09;100192.13;;;14.14;82.73
30708;BME280;17458;48.958;8.284;2023-11-19T03:36:53;100196.38;;;14.36;81.05
30708;BME280;17458;48.958;8.284;2023-11-19T03:39:37;100197.69;;;13.95;82.88
30708;BME280;17458;48.958;8.284;2023-11-19T03:42:21;100206.00;;;14.04;82.69
30708;BME280;17458;48.958;8.284;2023-11-19T03:45:07;100188.47;;;14.12;82.60
30708;BME280;17458;48.958;8.284;2023-11-19T03:47:54;100210.00;;;13.91;83.46
30708;BME280;17458;48.958;8.284;2023-11-19T03:50:37;100223.84;;;14.32;81.60
30708;BME280;17458;48.958;8.284;2023-11-19T03:53:21;100222.06;;;14.05;82.16
30708;BME280;17458;48.958;8.284;2023-11-19T03:56:06;100226.88;;;13.89;82.79
30708;BME280;17458;48.958;8.284;2023-11-19T03:58:50;100212.69;;;14.16;82.49
30708;BME280;17458;48.958;8.284;2023-11-19T04:01:36;100223.13;;;13.83;83.50
30708;BME280;17458;48.958;8.284;2023-11-19T04:04:21;100216.69;;;13.78;84.51
30708;BME280;17458;48.958;8.284;2023-11-19T04:07:05;100219.34;;;14.04;83.23
30708;BME280;17458;48.958;8.284;2023-11-19T04:09:49;100217.41;;;14.25;82.40
30708;BME280;17458;48.958;8.284;2023-11-19T04:12:33;100225.88;;;14.12;82.56
30708;BME280;17458;48.958;8.284;2023-11-19T04:15:17;100219.78;;;14.16;82.04
30708;BME280;17458;48.958;8.284;2023-11-19T04:18:01;100221.66;;;13.93;84.14
30708;BME280;17458;48.958;8.284;2023-11-19T04:20:45;100219.59;;;13.84;84.95
30708;BME280;17458;48.958;8.284;2023-11-19T04:23:28;100219.00;;;13.93;84.71
30708;BME280;17458;48.958;8.284;2023-11-19T04:26:12;100208.38;;;13.95;84.86
30708;BME280;17458;48.958;8.284;2023-11-19T04:28:57;100217.50;;;14.01;84.30
30708;BME280;17458;48.958;8.284;2023-11-19T04:31:43;100207.47;;;13.94;84.69
30708;BME280;17458;48.958;8.284;2023-11-19T04:34:30;100202.41;;;14.29;82.72
30708;BME280;17458;48.958;8.284;2023-11-19T04:37:14;100204.66;;;14.16;83.61
30708;BME280;17458;48.958;8.284;2023-11-19T04:39:59;100212.16;;;14.28;83.26
30708;BME280;17458;48.958;8.284;2023-11-19T04:42:43;100222.97;;;14.33;82.66
30708;BME280;17458;48.958;8.284;2023-11-19T04:45:27;100209.78;;;14.37;81.58
30708;BME280;17458;48.958;8.284;2023-11-19T04:48:11;100226.56;;;14.33;81.71
30708;BME280;17458;48.958;8.284;2023-11-19T04:50:56;100211.13;;;14.50;81.85
30708;BME280;17458;48.958;8.284;2023-11-19T04:53:40;100202.53;;;14.60;81.09
30708;BME280;17458;48.958;8.284;2023-11-19T04:56:24;100210.25;;;14.51;81.43
30708;BME280;17458;48.958;8.284;2023-11-19T04:59:08;100203.16;;;14.51;81.03
30708;BME280;17458;48.958;8.284;2023-11-19T05:01:52;100206.69;;;14.50;81.00
30708;BME280;17458;48.958;8.284;2023-11-19T05:04:36;100204.75;;;14.46;81.89
30708;BME280;17458;48.958;8.284;2023-11-19T05:07:21;100190.66;;;14.50;81.42
30708;BME280;17458;48.958;8.284;2023-11-19T05:10:05;100185.13;;;14.44;82.15
30708;BME280;17458;48.958;8.284;2023-11-19T05:12:50;100175.25;;;14.70;80.50
30708;BME280;17458;48.958;8.284;2023-11-19T05:15:35;100183.59;;;14.52;80.71
30708;BME280;17458;48.958;8.284;2023-11-19T05:18:19;100202.97;;;14.45;81.39
30708;BME280;17458;48.958;8.284;2023-11-19T05:21:03;100206.56;;;14.47;81.66
30708;BME280;17458;48.958;8.284;2023-11-19T05:23:47;100197.81;;;14.51;80.46
30708;BME280;17458;48.958;8.284;2023-11-19T05:26:32;100196.84;;;14.49;81.00
30708;BME280;17458;48.958;8.284;2023-11-19T05:29:16;100197.56;;;15.01;78.94
30708;BME280;17458;48.958;8.284;2023-11-19T05:32:00;100189.47;;;14.69;80.29
30708;BME280;17458;48.958;8.284;2023-11-19T05:34:44;100195.03;;;14.77;80.18
30708;BME280;17458;48.958;8.284;2023-11-19T05:37:28;100203.00;;;14.75;79.65
30708;BME280;17458;48.958;8.284;2023-11-19T05:40:12;100183.28;;;15.00;78.40
30708;BME280;17458;48.958;8.284;2023-11-19T05:42:58;100191.41;;;15.05;78.59
30708;BME280;17458;48.958;8.284;2023-11-19T05:45:42;100179.59;;;14.97;78.85
30708;BME280;17458;48.958;8.284;2023-11-19T05:48:27;100168.75;;;14.92;78.61
30708;BME280;17458;48.958;8.284;2023-11-19T05:51:11;100173.91;;;14.84;79.22
30708;BME280;17458;48.958;8.284;2023-11-19T05:53:55;100174.00;;;14.87;79.45
30708;BME280;17458;48.958;8.284;2023-11-19T05:56:40;100175.50;;;14.79;80.30
30708;BME280;17458;48.958;8.284;2023-11-19T05:59:25;100172.78;;;14.78;80.50
30708;BME280;17458;48.958;8.284;2023-11-19T06:02:09;100179.81;;;14.74;80.74
30708;BME280;17458;48.958;8.284;2023-11-19T06:04:53;100174.09;;;14.62;81.14
30708;BME280;17458;48.958;8.284;2023-11-19T06:07:37;100175.13;;;14.96;80.34
30708;BME280;17458;48.958;8.284;2023-11-19T06:10:23;100178.19;;;14.79;80.73
30708;BME280;17458;48.958;8.284;2023-11-19T06:13:13;100153.41;;;14.55;82.66
30708;BME280;17458;48.958;8.284;2023-11-19T06:15:58;100158.25;;;14.68;81.56
30708;BME280;17458;48.958;8.284;2023-11-19T06:18:42;100155.28;;;14.89;81.32
30708;BME280;17458;48.958;8.284;2023-11-19T06:21:27;100152.94;;;14.70;81.72
30708;BME280;17458;48.958;8.284;2023-11-19T06:24:11;100150.94;;;14.93;80.78
30708;BME280;17458;48.958;8.284;2023-11-19T06:26:56;100158.69;;;15.13;79.50
30708;BME280;17458;48.958;8.284;2023-11-19T06:29:39;100160.56;;;14.86;81.23
30708;BME280;17458;48.958;8.284;2023-11-19T06:32:24;100162.91;;;14.75;80.42
30708;BME280;17458;48.958;8.284;2023-11-19T06:35:08;100155.22;;;14.86;80.03
30708;BME280;17458;48.958;8.284;2023-11-19T06:37:53;100167.78;;;15.20;79.18
30708;BME280;17458;48.958;8.284;2023-11-19T06:40:37;100165.50;;;15.34;77.78
30708;BME280;17458;48.958;8.284;2023-11-19T06:43:21;100162.53;;;15.23;78.09
30708;BME280;17458;48.958;8.284;2023-11-19T06:46:05;100159.47;;;15.41;77.15
30708;BME280;17458;48.958;8.284;2023-11-19T06:48:49;100162.47;;;15.21;77.65
30708;BME280;17458;48.958;8.284;2023-11-19T06:51:34;100147.03;;;15.43;76.89
30708;BME280;17458;48.958;8.284;2023-11-19T06:54:18;100153.50;;;15.19;78.01
30708;BME280;17458;48.958;8.284;2023-11-19T06:57:02;100154.69;;;15.31;77.33
30708;BME280;17458;48.958;8.284;2023-11-19T06:59:47;100165.34;;;15.59;76.46
30708;BME280;17458;48.958;8.284;2023-11-19T07:02:31;100173.00;;;15.47;76.80
30708;BME280;17458;48.958;8.284;2023-11-19T07:05:15;100174.53;;;15.69;76.03
30708;BME280;17458;48.958;8.284;2023-11-19T07:07:59;100181.34;;;15.26;77.43
30708;BME280;17458;48.958;8.284;2023-11-19T07:10:43;100184.91;;;15.56;76.61
30708;BME280;17458;48.958;8.284;2023-11-19T07:13:27;100191.72;;;15.47;77.13
30708;BME280;17458;48.958;8.284;2023-11-19T07:16:14;100192.53;;;15.43;77.62
30708;BME280;17458;48.958;8.284;2023-11-19T07:18:58;100197.31;;;15.23;77.86
30708;BME280;17458;48.958;8.284;2023-11-19T07:21:43;100206.19;;;15.22;78.01
30708;BME280;17458;48.958;8.284;2023-11-19T07:24:28;100203.53;;;15.53;77.26
30708;BME280;17458;48.958;8.284;2023-11-19T07:27:12;100200.78;;;15.20;78.41
30708;BME280;17458;48.958;8.284;2023-11-19T07:29:57;100204.16;;;15.45;77.59
30708;BME280;17458;48.958;8.284;2023-11-19T07:32:41;100211.00;;;15.65;76.28
30708;BME280;17458;48.958;8.284;2023-11-19T07:35:25;100219.16;;;16.03;75.40
30708;BME280;17458;48.958;8.284;2023-11-19T07:38:09;100226.53;;;15.78;75.74
30708;BME280;17458;48.958;8.284;2023-11-19T07:40:53;100231.44;;;15.94;74.97
30708;BME280;17458;48.958;8.284;2023-11-19T07:43:39;100230.72;;;16.02;74.64
30708;BME280;17458;48.958;8.284;2023-11-19T07:46:23;100231.91;;;15.48;76.50
30708;BME280;17458;48.958;8.284;2023-11-19T07:49:08;100229.34;;;15.51;76.71
30708;BME280;17458;48.958;8.284;2023-11-19T07:51:54;100234.75;;;15.53;77.23
30708;BME280;17458;48.958;8.284;2023-11-19T07:54:38;100244.34;;;15.76;76.45
30708;BME280;17458;48.958;8.284;2023-11-19T07:57:22;100241.31;;;15.64;77.94
30708;BME280;17458;48.958;8.284;2023-11-19T08:00:08;100246.06;;;15.43;79.10
30708;BME280;17458;48.958;8.284;2023-11-19T08:02:59;100234.09;;;15.32;79.47
30708;BME280;17458;48.958;8.284;2023-11-19T08:05:42;100245.25;;;15.47;79.17
30708;BME280;17458;48.958;8.284;2023-11-19T08:08:26;100246.53;;;15.58;78.96
30708;BME280;17458;48.958;8.284;2023-11-19T08:11:13;100266.88;;;15.84;77.22
30708;BME280;17458;48.958;8.284;2023-11-19T08:13:57;100255.94;;;15.77;77.27
30708;BME280;17458;48.958;8.284;2023-11-19T08:16:41;100269.34;;;15.77;77.48
30708;BME280;17458;48.958;8.284;2023-11-19T08:19:25;100263.59;;;15.63;77.63
30708;BME280;17458;48.958;8.284;2023-11-19T08:22:09;100258.44;;;15.39;78.18
30708;BME280;17458;48.958;8.284;2023-11-19T08:24:53;100262.97;;;15.72;77.10
30708;BME280;17458;48.958;8.284;2023-11-19T08:27:37;100267.38;;;15.70;77.63
30708;BME280;17458;48.958;8.284;2023-11-19T08:30:21;100279.97;;;15.74;77.42
30708;BME280;17458;48.958;8.284;2023-11-19T08:33:05;100270.06;;;15.70;76.95
30708;BME280;17458;48.958;8.284;2023-11-19T08:35:50;100271.69;;;15.65;77.50
30708;BME280;17458;48.958;8.284;2023-11-19T08:38:34;100264.31;;;15.89;76.84
30708;BME280;17458;48.958;8.284;2023-11-19T08:41:17;100265.81;;;15.78;76.90
30708;BME280;17458;48.958;8.284;2023-11-19T08:44:03;100273.75;;;16.08;75.54
30708;BME280;17458;48.958;8.284;2023-11-19T08:46:56;100290.63;;;15.72;76.79
30708;BME280;17458;48.958;8.284;2023-11-19T08:49:40;100295.50;;;15.85;76.93
30708;BME280;17458;48.958;8.284;2023-11-19T08:52:24;100299.03;;;15.54;79.63
30708;BME280;17458;48.958;8.284;2023-11-19T08:55:08;100301.56;;;15.50;79.81
30708;BME280;17458;48.958;8.284;2023-11-19T08:57:53;100288.03;;;15.15;82.80
30708;BME280;17458;48.958;8.284;2023-11-19T09:00:37;100290.66;;;15.74;80.56
30708;BME280;17458;48.958;8.284;2023-11-19T09:03:21;100294.06;;;15.67;80.47
30708;BME280;17458;48.958;8.284;2023-11-19T09:06:06;100292.13;;;15.63;80.58
30708;BME280;17458;48.958;8.284;2023-11-19T09:08:50;100285.16;;;15.68;80.54
30708;BME280;17458;48.958;8.284;2023-11-19T09:11:34;100299.56;;;15.73;80.47
30708;BME280;17458;48.958;8.284;2023-11-19T09:14:18;100296.09;;;16.77;78.42
30708;BME280;17458;48.958;8.284;2023-11-19T09:17:02;100300.19;;;17.38;75.00
30708;BME280;17458;48.958;8.284;2023-11-19T09:19:46;100314.50;;;17.37;72.96
30708;BME280;17458;48.958;8.284;2023-11-19T09:22:30;100309.06;;;17.75;71.35
30708;BME280;17458;48.958;8.284;2023-11-19T09:25:14;100295.59;;;16.93;73.53
30708;BME280;17458;48.958;8.284;2023-11-19T09:28:00;100302.31;;;17.12;73.85
30708;BME280;17458;48.958;8.284;2023-11-19T09:30:44;100288.88;;;17.95;70.68
30708;BME280;17458;48.958;8.284;2023-11-19T09:33:28;100296.59;;;18.26;69.10
30708;BME280;17458;48.958;8.284;2023-11-19T09:36:12;100301.59;;;17.21;71.93
30708;BME280;17458;48.958;8.284;2023-11-19T09:39:00;100301.72;;;16.88;73.88
30708;BME280;17458;48.958;8.284;2023-11-19T09:41:48;100313.16;;;16.79;75.14
30708;BME280;17458;48.958;8.284;2023-11-19T09:44:33;100320.94;;;16.69;75.30
30708;BME280;17458;48.958;8.284;2023-11-19T09:47:19;100313.25;;;16.49;76.09
30708;BME280;17458;48.958;8.284;2023-11-19T09:50:03;100311.53;;;16.51;76.34
30708;BME280;17458;48.958;8.284;2023-11-19T09:52:48;100303.75;;;16.62;76.49
30708;BME280;17458;48.958;8.284;2023-11-19T09:55:32;100304.38;;;16.52;75.53
30708;BME280;17458;48.958;8.284;2023-11-19T09:58:17;100307.94;;;16.87;75.03
30708;BME280;17458;48.958;8.284;2023-11-19T10:01:01;100309.13;;;16.98;74.29
30708;BME280;17458;48.958;8.284;2023-11-19T10:03:52;100295.53;;;17.29;73.81
30708;BME280;17458;48.958;8.284;2023-11-19T10:06:39;100295.31;;;16.81;73.95
30708;BME280;17458;48.958;8.284;2023-11-19T10:09:22;100298.41;;;16.98;74.41
30708;BME280;17458;48.958;8.284;2023-11-19T10:12:06;100293.31;;;17.10;74.19
30708;BME280;17458;48.958;8.284;2023-11-19T10:14:50;100287.00;;;17.08;73.45
30708;BME280;17458;48.958;8.284;2023-11-19T10:17:35;100281.22;;;16.90;74.29
30708;BME280;17458;48.958;8.284;2023-11-19T10:20:19;100274.53;;;17.10;73.61
30708;BME280;17458;48.958;8.284;2023-11-19T10:23:03;100263.34;;;17.31;71.99
30708;BME280;17458;48.958;8.284;2023-11-19T10:25:47;100270.41;;;17.27;72.87
30708;BME280;17458;48.958;8.284;2023-11-19T10:28:40;100282.59;;;17.52;72.16
30708;BME280;17458;48.958;8.284;2023-11-19T10:31:27;100276.03;;;17.80;71.58
30708;BME280;17458;48.958;8.284;2023-11-19T10:34:25;100279.53;;;17.76;71.38
30708;BME280;17458;48.958;8.284;2023-11-19T10:37:27;100282.22;;;17.76;70.31
30708;BME280;17458;48.958;8.284;2023-11-19T10:40:11;100279.13;;;17.58;71.22
30708;BME280;17458;48.958;8.284;2023-11-19T10:43:02;100271.84;;;18.46;68.99
30708;BME280;17458;48.958;8.284;2023-11-19T10:45:46;100281.59;;;17.89;69.66
30708;BME280;17458;48.958;8.284;2023-11-19T10:48:30;100279.59;;;17.79;69.74
30708;BME280;17458;48.958;8.284;2023-11-19T10:51:19;100269.25;;;17.57;70.66
30708;BME280;17458;48.958;8.284;2023-11-19T10:54:08;100281.59;;;17.47;70.76
30708;BME280;17458;48.958;8.284;2023-11-19T10:56:59;100278.63;;;17.33;71.57
30708;BME280;17458;48.958;8.284;2023-11-19T10:59:45;100272.22;;;17.67;70.65
30708;BME280;17458;48.958;8.284;2023-11-19T11:02:30;100263.28;;;17.68;70.28
30708;BME280;17458;48.958;8.284;2023-11-19T11:05:19;100261.09;;;17.51;70.74
30708;BME280;17458;48.958;8.284;2023-11-19T11:08:06;100253.75;;;17.86;70.24
30708;BME280;17458;48.958;8.284;2023-11-19T11:10:55;100250.72;;;18.16;69.74
30708;BME280;17458;48.958;8.284;2023-11-19T11:13:42;100252.19;;;17.98;69.01
30708;BME280;17458;48.958;8.284;2023-11-19T11:16:27;100249.09;;;18.24;68.14
30708;BME280;17458;48.958;8.284;2023-11-19T11:19:12;100261.97;;;18.45;67.57
30708;BME280;17458;48.958;8.284;2023-11-19T11:21:57;100258.69;;;18.59;66.67
30708;BME280;17458;48.958;8.284;2023-11-19T11:28:18;100265.81;;;18.08;68.65
30708;BME280;17458;48.958;8.284;2023-11-19T11:37:20;100254.88;;;17.53;70.63
30708;BME280;17458;48.958;8.284;2023-11-19T11:40:16;100245.56;;;18.28;68.45
30708;BME280;17458;48.958;8.284;2023-11-19T11:43:02;100242.94;;;17.81;69.61
30708;BME280;17458;48.958;8.284;2023-11-19T11:45:47;100238.75;;;17.98;69.85
30708;BME280;17458;48.958;8.284;2023-11-19T11:48:31;100237.00;;;18.00;68.69
30708;BME280;17458;48.958;8.284;2023-11-19T11:51:15;100234.25;;;17.51;69.91
30708;BME280;17458;48.958;8.284;2023-11-19T11:53:59;100230.56;;;17.91;69.88
30708;BME280;17458;48.958;8.284;2023-11-19T11:57:04;100234.50;;;18.11;68.40
30708;BME280;17458;48.958;8.284;2023-11-19T11:59:50;100239.31;;;18.29;67.54
30708;BME280;17458;48.958;8.284;2023-11-19T12:02:34;100225.63;;;18.15;67.46
30708;BME280;17458;48.958;8.284;2023-11-19T12:05:18;100223.22;;;18.32;66.76
30708;BME280;17458;48.958;8.284;2023-11-19T12:08:04;100224.22;;;18.37;66.44
30708;BME280;17458;48.958;8.284;2023-11-19T12:10:51;100214.81;;;18.11;67.83
30708;BME280;17458;48.958;8.284;2023-11-19T12:13:47;100210.09;;;18.50;67.22
30708;BME280;17458;48.958;8.284;2023-11-19T12:16:36;100202.44;;;18.74;66.45
30708;BME280;17458;48.958;8.284;2023-11-19T12:19:21;100209.88;;;18.36;67.40
30708;BME280;17458;48.958;8.284;2023-11-19T12:22:10;100197.97;;;18.76;66.89
30708;BME280;17458;48.958;8.284;2023-11-19T12:24:55;100193.25;;;18.60;65.91
30708;BME280;17458;48.958;8.284;2023-11-19T12:27:41;100189.94;;;18.78;65.31
30708;BME280;17458;48.958;8.284;2023-11-19T12:30:26;100172.84;;;18.76;65.74
30708;BME280;17458;48.958;8.284;2023-11-19T12:33:11;100180.34;;;18.38;66.06
30708;BME280;17458;48.958;8.284;2023-11-19T12:35:55;100176.56;;;18.28;66.39
30708;BME280;17458;48.958;8.284;2023-11-19T12:38:41;100167.41;;;18.71;63.47
30708;BME280;17458;48.958;8.284;2023-11-19T12:41:25;100179.28;;;18.30;63.80
30708;BME280;17458;48.958;8.284;2023-11-19T12:44:10;100175.47;;;18.71;62.49
30708;BME280;17458;48.958;8.284;2023-11-19T12:47:06;100163.53;;;18.56;59.86
30708;BME280;17458;48.958;8.284;2023-11-19T12:49:59;100166.97;;;18.44;59.51
30708;BME280;17458;48.958;8.284;2023-11-19T12:52:43;100155.91;;;18.26;58.60
30708;BME280;17458;48.958;8.284;2023-11-19T12:55:38;100162.28;;;18.31;57.14
30708;BME280;17458;48.958;8.284;2023-11-19T12:58:30;100175.13;;;18.49;56.95
30708;BME280;17458;48.958;8.284;2023-11-19T13:01:18;100167.91;;;18.48;56.37
30708;BME280;17458;48.958;8.284;2023-11-19T13:04:29;100159.75;;;19.02;55.58
30708;BME280;17458;48.958;8.284;2023-11-19T13:07:20;100143.25;;;18.74;54.12
30708;BME280;17458;48.958;8.284;2023-11-19T13:10:04;100149.47;;;18.72;54.18
30708;BME280;17458;48.958;8.284;2023-11-19T13:15:45;100132.59;;;18.23;55.47
30708;BME280;17458;48.958;8.284;2023-11-19T13:18:29;100144.94;;;18.66;54.39
30708;BME280;17458;48.958;8.284;2023-11-19T13:21:13;100150.31;;;18.68;53.99
30708;BME280;17458;48.958;8.284;2023-11-19T13:23:57;100133.50;;;18.24;55.06
30708;BME280;17458;48.958;8.284;2023-11-19T13:26:41;100136.75;;;18.59;53.71
30708;BME280;17458;48.958;8.284;2023-11-19T13:29:25;100126.09;;;18.68;54.11
30708;BME280;17458;48.958;8.284;2023-11-19T13:32:09;100117.50;;;18.33;54.58
30708;BME280;17458;48.958;8.284;2023-11-19T13:34:53;100119.59;;;18.54;54.54
30708;BME280;17458;48.958;8.284;2023-11-19T13:37:37;100128.56;;;18.53;54.69
30708;BME280;17458;48.958;8.284;2023-11-19T13:40:21;100108.13;;;18.64;54.17
30708;BME280;17458;48.958;8.284;2023-11-19T13:43:06;100119.38;;;18.40;54.11
30708;BME280;17458;48.958;8.284;2023-11-19T13:45:51;100115.84;;;18.42;54.37
30708;BME280;17458;48.958;8.284;2023-11-19T13:48:37;100112.19;;;17.80;55.38
30708;BME280;17458;48.958;8.284;2023-11-19T13:51:21;100114.72;;;17.73;55.40
30708;BME280;17458;48.958;8.284;2023-11-19T13:54:05;100120.41;;;17.89;55.19
30708;BME280;17458;48.958;8.284;2023-11-19T13:56:49;100112.03;;;17.73;54.91
30708;BME280;17458;48.958;8.284;2023-11-19T13:59:33;100117.59;;;17.82;55.18
30708;BME280;17458;48.958;8.284;2023-11-19T14:02:17;100118.72;;;17.97;54.97
30708;BME280;17458;48.958;8.284;2023-11-19T14:05:01;100115.69;;;17.76;55.75
30708;BME280;17458;48.958;8.284;2023-11-19T14:07:46;100120.44;;;17.92;55.96
30708;BME280;17458;48.958;8.284;2023-11-19T14:10:32;100112.09;;;17.76;55.95
30708;BME280;17458;48.958;8.284;2023-11-19T14:13:16;100110.88;;;17.60;56.60
30708;BME280;17458;48.958;8.284;2023-11-19T14:16:01;100104.50;;;17.52;56.71
30708;BME280;17458;48.958;8.284;2023-11-19T14:18:45;100117.13;;;18.09;56.16
30708;BME280;17458;48.958;8.284;2023-11-19T14:21:29;100114.63;;;18.21;55.91
30708;BME280;17458;48.958;8.284;2023-11-19T14:24:13;100107.94;;;18.53;55.17
30708;BME280;17458;48.958;8.284;2023-11-19T14:26:57;100107.94;;;18.55;55.52
30708;BME280;17458;48.958;8.284;2023-11-19T14:29:45;100101.97;;;18.74;55.46
30708;BME280;17458;48.958;8.284;2023-11-19T14:32:29;100116.81;;;18.46;56.36
30708;BME280;17458;48.958;8.284;2023-11-19T14:35:13;100109.44;;;18.33;56.23
30708;BME280;17458;48.958;8.284;2023-11-19T14:37:57;100100.81;;;17.98;56.48